createdAt,value
2023-01-01T00:01:29.036Z,1.40
2023-01-01T00:04:01.208Z,1.40
2023-01-01T00:06:29.602Z,1.50
2023-01-01T00:09:11.841Z,1.40
2023-01-01T00:11:40.156Z,1.38
2023-01-01T00:14:12.276Z,1.27
2023-01-01T00:45:40.981Z,1.35
2023-01-01T00:48:09.503Z,1.55
2023-01-01T00:50:38.270Z,1.40
2023-01-01T00:53:07.251Z,1.40
2023-01-01T00:55:35.706Z,1.60
2023-01-01T00:58:04.224Z,1.42
2023-01-01T01:00:33.027Z,1.77
2023-01-01T01:03:03.032Z,1.50
2023-01-01T01:05:33.203Z,1.38
2023-01-01T01:08:01.828Z,1.60
2023-01-01T01:10:30.353Z,1.70
2023-01-01T01:12:58.933Z,1.50
2023-01-01T01:38:50.794Z,1.92
2023-01-01T01:41:28.933Z,1.63
2023-01-01T01:44:01.892Z,1.60
2023-01-01T01:46:35.854Z,1.50
2023-01-01T01:49:13.336Z,1.48
2023-01-01T01:51:43.158Z,1.73
2023-01-01T01:54:17.363Z,1.70
2023-01-01T01:56:51.493Z,1.50
2023-01-01T01:59:21.965Z,1.80
2023-01-01T02:01:50.778Z,1.60
2023-01-01T02:04:19.921Z,1.70
2023-01-01T02:06:49.326Z,1.63
2023-01-01T02:09:19.815Z,1.50
2023-01-01T02:11:48.305Z,1.70
2023-01-01T02:14:17.513Z,1.73
2023-01-01T02:16:52.246Z,1.75
2023-01-01T02:19:38.543Z,1.67
2023-01-01T02:22:16.167Z,1.80
2023-01-01T02:24:56.811Z,1.90
2023-01-01T02:27:36.311Z,1.60
2023-01-01T02:30:09.423Z,1.45
2023-01-01T02:32:44.072Z,1.60
2023-01-01T02:35:36.302Z,1.70
2023-01-01T02:38:11.270Z,1.77
2023-01-01T02:40:46.441Z,1.67
2023-01-01T02:43:18.931Z,1.70
2023-01-01T02:45:51.585Z,1.90
2023-01-01T02:48:43.243Z,1.55
2023-01-01T02:51:23.489Z,1.90
2023-01-01T02:54:02.981Z,1.85
2023-01-01T02:56:41.720Z,1.70
2023-01-01T02:59:39.676Z,1.73
2023-01-01T03:46:11.213Z,2.15
2023-01-01T03:49:00.277Z,2.10
2023-01-01T03:52:02.932Z,1.95
2023-01-01T03:54:46.624Z,1.95
2023-01-01T03:57:23.157Z,1.92
2023-01-01T04:47:00.244Z,2.17
2023-01-01T04:49:28.915Z,2.15
2023-01-01T04:51:57.426Z,2.00
2023-01-01T04:54:26.172Z,2.05
2023-01-01T04:56:55.087Z,1.88
2023-01-01T04:59:24.018Z,1.80
2023-01-01T05:30:52.420Z,1.58
2023-01-01T05:33:21.992Z,1.90
2023-01-01T05:35:56.238Z,1.67
2023-01-01T05:38:25.456Z,1.77
2023-01-01T05:40:54.297Z,1.98
2023-01-01T05:43:23.234Z,1.88
2023-01-01T05:46:02.383Z,1.80
2023-01-01T05:48:30.969Z,2.03
2023-01-01T05:51:04.965Z,1.80
2023-01-01T05:53:33.694Z,1.70
2023-01-01T05:56:02.511Z,1.67
2023-01-01T05:58:33.224Z,1.88
2023-01-01T06:01:10.926Z,1.83
2023-01-01T06:03:40.255Z,1.85
2023-01-01T06:06:11.526Z,2.03
2023-01-01T06:08:40.655Z,2.13
2023-01-01T06:11:13.198Z,1.85
2023-01-01T06:13:41.876Z,1.95
2023-01-01T06:16:12.382Z,2.08
2023-01-01T06:18:41.257Z,1.80
2023-01-01T06:21:12.668Z,1.83
2023-01-01T06:23:41.751Z,1.73
2023-01-01T06:26:12.941Z,1.60
2023-01-01T06:28:42.399Z,1.80
2023-01-01T06:31:15.765Z,1.83
2023-01-01T06:33:44.938Z,1.98
2023-01-01T06:36:17.098Z,1.90
2023-01-01T06:38:48.267Z,2.10
2023-01-01T06:41:19.479Z,1.80
2023-01-01T06:43:49.086Z,2.10
2023-01-01T06:46:21.877Z,1.85
2023-01-01T06:48:54.406Z,2.13
2023-01-01T06:51:25.207Z,1.90
2023-01-01T06:53:55.240Z,1.88
2023-01-01T06:56:24.022Z,2.08
2023-01-01T06:58:53.040Z,1.70
2023-01-01T07:01:26.146Z,1.90
2023-01-01T07:03:57.123Z,1.90
2023-01-01T07:06:27.248Z,1.77
2023-01-01T07:08:56.456Z,1.65
2023-01-01T07:11:25.926Z,1.90
2023-01-01T07:13:54.802Z,1.80
2023-01-01T07:16:25.453Z,2.10
2023-01-01T07:18:54.820Z,1.90
2023-01-01T07:21:32.201Z,1.75
2023-01-01T07:24:02.805Z,2.13
2023-01-01T07:26:33.154Z,1.75
2023-01-01T07:29:07.386Z,2.05
2023-01-01T07:31:39.040Z,1.80
2023-01-01T07:34:08.429Z,1.98
2023-01-01T07:36:37.189Z,1.73
2023-01-01T07:39:05.812Z,2.15
2023-01-01T07:41:34.410Z,1.70
2023-01-01T07:44:02.981Z,1.70
2023-01-01T07:46:31.589Z,1.70
2023-01-01T07:49:01.601Z,1.80
2023-01-01T07:51:30.154Z,1.65
2023-01-01T07:54:05.736Z,1.60
2023-01-01T07:56:36.332Z,1.85
2023-01-01T07:59:05.460Z,1.70
2023-01-01T08:01:37.937Z,1.98
2023-01-01T08:04:08.204Z,1.80
2023-01-01T08:06:36.835Z,2.20
2023-01-01T08:09:05.476Z,1.63
2023-01-01T08:11:34.068Z,1.75
2023-01-01T08:14:03.146Z,1.63
2023-01-01T08:16:31.774Z,2.00
2023-01-01T08:19:00.310Z,1.90
2023-01-01T08:21:30.401Z,1.80
2023-01-01T08:23:58.953Z,1.92
2023-01-01T08:26:33.467Z,1.90
2023-01-01T08:29:04.636Z,1.92
2023-01-01T08:31:33.527Z,1.90
2023-01-01T08:34:02.078Z,1.73
2023-01-01T08:36:32.237Z,1.90
2023-01-01T08:39:01.095Z,1.73
2023-01-01T08:41:29.621Z,2.10
2023-01-01T08:43:58.165Z,1.75
2023-01-01T08:46:27.119Z,2.22
2023-01-01T08:48:55.910Z,1.85
2023-01-01T08:51:24.698Z,1.98
2023-01-01T08:53:54.687Z,2.00
2023-01-01T08:56:23.269Z,1.63
2023-01-01T08:58:51.888Z,1.73
2023-01-01T09:01:22.308Z,1.98
2023-01-01T09:03:51.086Z,1.90
2023-01-01T09:06:19.831Z,2.05
2023-01-01T09:08:48.626Z,1.92
2023-01-01T09:11:24.970Z,1.58
2023-01-01T09:13:54.772Z,1.70
2023-01-01T09:16:24.160Z,1.88
2023-01-01T09:18:52.826Z,1.83
2023-01-01T09:21:21.638Z,2.20
2023-01-01T09:23:50.152Z,1.50
2023-01-01T09:26:19.989Z,1.80
2023-01-01T09:28:48.477Z,1.63
2023-01-01T09:31:16.912Z,1.70
2023-01-01T09:33:45.718Z,1.90
2023-01-01T09:36:17.387Z,1.83
2023-01-01T09:38:50.604Z,1.88
2023-01-01T09:41:34.096Z,1.60
2023-01-01T09:44:10.847Z,1.95
2023-01-01T09:46:39.964Z,1.80
2023-01-01T09:49:15.539Z,2.15
2023-01-01T09:51:51.129Z,2.03
2023-01-01T09:54:30.344Z,1.80
2023-01-01T09:57:03.918Z,1.85
2023-01-01T09:59:32.439Z,1.52
2023-01-01T10:02:17.460Z,1.90
2023-01-01T10:05:00.703Z,1.70
2023-01-01T10:07:40.479Z,1.90
2023-01-01T10:10:26.721Z,1.60
2023-01-01T10:13:08.259Z,1.60
2023-01-01T10:15:41.876Z,1.52
2023-01-01T10:18:21.386Z,1.75
2023-01-01T10:20:59.091Z,1.80
2023-01-01T10:23:35.163Z,1.80
2023-01-01T10:26:12.946Z,1.55
2023-01-01T10:28:53.109Z,1.73
2023-01-01T10:31:33.670Z,1.90
2023-01-01T10:34:15.338Z,1.70
2023-01-01T10:36:45.065Z,1.67
2023-01-01T10:39:16.745Z,1.85
2023-01-01T10:41:45.467Z,1.70
2023-01-01T10:44:17.605Z,1.60
2023-01-01T10:46:51.671Z,1.60
2023-01-01T10:49:20.160Z,1.55
2023-01-01T10:51:50.995Z,1.50
2023-01-01T10:54:36.366Z,1.50
2023-01-01T10:57:17.056Z,1.80
2023-01-01T10:59:54.012Z,1.48
2023-01-01T11:02:26.298Z,1.67
2023-01-01T11:05:21.061Z,1.58
2023-01-01T11:07:50.781Z,1.80
2023-01-01T11:10:22.323Z,1.67
2023-01-01T11:13:08.663Z,1.67
2023-01-01T11:15:44.171Z,1.60
2023-01-01T11:18:16.434Z,1.60
2023-01-01T11:20:45.378Z,1.73
2023-01-01T11:23:31.727Z,1.67
2023-01-01T11:26:04.169Z,1.77
2023-01-01T11:28:34.949Z,1.90
2023-01-01T11:31:18.551Z,1.77
2023-01-01T11:33:50.210Z,1.40
2023-01-01T11:36:32.587Z,1.50
2023-01-01T11:39:23.426Z,1.40
2023-01-01T11:41:54.541Z,1.50
2023-01-01T11:44:35.532Z,1.40
2023-01-01T11:47:07.556Z,1.60
2023-01-01T11:49:36.641Z,1.50
2023-01-01T11:52:30.856Z,1.67
2023-01-01T11:55:13.013Z,1.35
2023-01-01T11:57:47.694Z,1.83
2023-01-01T12:00:17.963Z,1.70
2023-01-01T12:02:55.494Z,1.65
2023-01-01T12:05:29.330Z,1.52
2023-01-01T12:08:04.172Z,1.85
2023-01-01T12:10:43.055Z,1.50
2023-01-01T12:13:19.225Z,1.70
2023-01-01T12:15:54.605Z,1.70
2023-01-01T12:18:31.506Z,1.50
2023-01-01T12:21:06.524Z,1.40
2023-01-01T12:23:37.064Z,1.40
2023-01-01T12:26:19.188Z,1.60
2023-01-01T12:29:15.060Z,1.60
2023-01-01T12:31:52.481Z,1.58
2023-01-01T12:34:30.036Z,1.30
2023-01-01T12:37:09.442Z,1.67
2023-01-01T12:40:36.318Z,1.60
2023-01-01T12:43:06.785Z,1.60
2023-01-01T12:45:56.357Z,1.70
2023-01-01T12:49:15.620Z,1.42
2023-01-01T12:51:58.506Z,1.52
2023-01-01T12:55:21.319Z,1.60
2023-01-01T12:57:56.437Z,1.42
2023-01-01T13:00:25.658Z,1.60
2023-01-01T13:02:59.679Z,1.38
2023-01-01T13:05:36.293Z,1.67
2023-01-01T13:08:07.778Z,1.55
2023-01-01T13:10:40.625Z,1.52
2023-01-01T13:13:09.323Z,1.58
2023-01-01T13:15:56.322Z,1.65
2023-01-01T13:18:34.975Z,1.52
2023-01-01T13:21:23.101Z,1.50
2023-01-01T13:23:55.190Z,1.40
2023-01-01T13:26:44.060Z,1.40
2023-01-01T13:29:36.673Z,1.50
2023-01-01T13:32:08.556Z,1.40
2023-01-01T13:35:03.041Z,1.63
2023-01-01T13:37:51.792Z,1.77
2023-01-01T13:40:54.055Z,1.45
2023-01-01T13:43:30.085Z,1.60
2023-01-01T13:46:12.973Z,1.60
2023-01-01T13:49:14.862Z,1.55
2023-01-01T13:52:24.280Z,1.30
2023-01-01T13:55:40.792Z,1.60
2023-01-01T13:58:56.601Z,1.60
2023-01-01T14:01:50.835Z,1.80
2023-01-01T14:04:40.634Z,1.48
2023-01-01T14:10:26.255Z,1.30
2023-01-01T14:12:56.975Z,1.52
2023-01-01T14:15:30.202Z,1.30
2023-01-01T14:18:03.791Z,1.50
2023-01-01T14:20:40.976Z,1.50
2023-01-01T14:23:14.283Z,1.65
2023-01-01T14:25:44.299Z,1.40
2023-01-01T14:28:21.308Z,1.25
2023-01-01T14:30:50.738Z,1.58
2023-01-01T14:33:29.474Z,1.45
2023-01-01T14:36:00.508Z,1.42
2023-01-01T14:38:33.414Z,1.40
2023-01-01T14:41:13.194Z,1.50
2023-01-01T14:43:44.542Z,1.20
2023-01-01T14:46:19.188Z,1.30
2023-01-01T14:48:52.029Z,1.40
2023-01-01T14:51:23.052Z,1.58
2023-01-01T14:53:53.371Z,1.40
2023-01-01T14:56:28.550Z,1.42
2023-01-01T14:59:07.759Z,1.40
2023-01-01T15:01:36.682Z,1.42
2023-01-01T15:04:20.271Z,1.50
2023-01-01T15:06:55.509Z,1.50
2023-01-01T15:09:24.602Z,1.38
2023-01-01T15:11:54.148Z,1.30
2023-01-01T15:14:37.456Z,1.45
2023-01-01T15:17:09.349Z,1.60
2023-01-01T15:19:41.756Z,1.70
2023-01-01T15:22:12.578Z,1.30
2023-01-01T15:24:41.712Z,1.40
2023-01-01T15:27:24.479Z,1.65
2023-01-01T15:29:53.412Z,1.30
2023-01-01T15:32:29.044Z,1.30
2023-01-01T15:35:01.299Z,1.50
2023-01-01T15:37:35.127Z,1.50
2023-01-01T15:40:35.796Z,1.50
2023-01-01T15:43:17.045Z,1.58
2023-01-01T15:45:54.417Z,1.42
2023-01-01T15:48:32.730Z,1.20
2023-01-01T15:51:16.249Z,1.40
2023-01-01T15:53:54.059Z,1.30
2023-01-01T15:56:26.522Z,1.55
2023-01-01T15:59:06.813Z,1.48
2023-01-01T16:01:40.471Z,1.50
2023-01-01T16:04:12.775Z,1.50
2023-01-01T16:06:47.996Z,1.50
2023-01-01T16:09:18.791Z,1.40
2023-01-01T16:11:52.120Z,1.65
2023-01-01T16:14:21.031Z,1.33
2023-01-01T16:16:54.795Z,1.40
2023-01-01T16:19:25.152Z,1.38
2023-01-01T16:21:55.419Z,1.30
2023-01-01T16:24:24.481Z,1.50
2023-01-01T16:26:53.705Z,1.40
2023-01-01T16:29:22.730Z,1.33
2023-01-01T16:31:52.975Z,1.52
2023-01-01T16:34:21.859Z,1.45
2023-01-01T16:36:51.436Z,1.63
2023-01-01T16:39:21.484Z,1.40
2023-01-01T16:41:50.051Z,1.10
2023-01-01T16:44:18.901Z,1.50
2023-01-01T16:46:48.151Z,1.23
2023-01-01T16:49:17.202Z,1.40
2023-01-01T16:51:46.004Z,1.45
2023-01-01T16:54:16.022Z,1.40
2023-01-01T16:56:46.208Z,1.20
2023-01-01T16:59:16.049Z,1.50
2023-01-01T17:01:45.500Z,1.30
2023-01-01T17:04:15.098Z,1.45
2023-01-01T17:06:43.911Z,1.50
2023-01-01T17:09:13.673Z,1.50
2023-01-01T17:11:42.401Z,1.38
2023-01-01T17:14:12.807Z,1.45
2023-01-01T17:16:41.583Z,1.45
2023-01-01T17:19:16.290Z,1.50
2023-01-01T17:21:48.491Z,1.40
2023-01-01T17:24:18.386Z,1.40
2023-01-01T17:26:51.287Z,1.30
2023-01-01T17:29:21.899Z,1.23
2023-01-01T17:31:51.451Z,1.60
2023-01-01T17:34:20.469Z,1.60
2023-01-01T17:36:49.738Z,1.40
2023-01-01T17:39:18.933Z,1.40
2023-01-01T17:41:48.187Z,1.20
2023-01-01T17:44:17.546Z,1.50
2023-01-01T17:46:48.213Z,1.50
2023-01-01T17:49:17.075Z,1.50
2023-01-01T17:51:46.394Z,1.95
2023-01-01T17:54:14.976Z,1.40
2023-01-01T17:56:44.908Z,1.70
2023-01-01T17:59:13.782Z,1.35
2023-01-01T18:01:42.639Z,1.40
2023-01-01T18:04:14.093Z,1.42
2023-01-01T18:06:45.826Z,1.30
2023-01-01T18:09:19.455Z,1.40
2023-01-01T18:11:48.859Z,1.60
2023-01-01T18:14:22.874Z,1.52
2023-01-01T18:16:53.714Z,1.40
2023-01-01T18:19:24.006Z,1.70
2023-01-01T18:21:56.508Z,1.50
2023-01-01T18:24:25.474Z,1.35
2023-01-01T18:26:54.921Z,1.52
2023-01-01T18:29:23.901Z,1.30
2023-01-01T18:31:54.297Z,1.52
2023-01-01T18:34:25.195Z,1.45
2023-01-01T18:36:57.150Z,1.50
2023-01-01T18:39:30.405Z,250.68
2023-01-01T18:42:39.928Z,120.15
2023-01-01T18:45:18.966Z,113.30
2023-01-01T18:47:48.954Z,116.30
2023-01-01T18:50:26.736Z,125.65
2023-01-01T18:52:59.319Z,244.52
2023-01-01T18:55:29.114Z,254.13
2023-01-01T18:58:02.274Z,232.02
2023-01-01T19:00:36.292Z,241.50
2023-01-01T19:03:14.071Z,240.55
2023-01-01T19:05:47.668Z,240.27
2023-01-01T19:08:21.278Z,246.25
2023-01-01T19:10:53.697Z,242.55
2023-01-01T19:13:25.229Z,234.80
2023-01-01T19:15:58.334Z,238.75
2023-01-01T19:18:31.004Z,241.70
2023-01-01T19:21:19.645Z,238.20
2023-01-01T19:23:53.288Z,240.60
2023-01-01T19:26:26.908Z,242.20
2023-01-01T19:28:57.798Z,240.52
2023-01-01T19:31:27.083Z,240.05
2023-01-01T19:33:55.761Z,238.88
2023-01-01T19:36:26.376Z,236.88
2023-01-01T19:38:54.976Z,240.75
2023-01-01T19:41:23.739Z,237.25
2023-01-01T19:43:53.648Z,237.20
2023-01-01T19:46:22.911Z,235.93
2023-01-01T19:48:53.172Z,237.65
2023-01-01T19:51:23.517Z,236.52
2023-01-01T19:53:55.025Z,234.95
2023-01-01T19:56:24.817Z,233.52
2023-01-01T19:58:54.929Z,235.13
2023-01-01T20:01:24.300Z,228.45
2023-01-01T20:03:56.053Z,227.98
2023-01-01T20:06:26.388Z,227.82
2023-01-01T20:08:57.237Z,228.43
2023-01-01T20:11:29.663Z,230.75
2023-01-01T20:13:58.911Z,226.98
2023-01-01T20:16:28.832Z,221.23
2023-01-01T20:18:58.111Z,219.82
2023-01-01T20:21:44.498Z,219.95
2023-01-01T20:24:17.466Z,220.25
2023-01-01T20:26:47.430Z,221.35
2023-01-01T20:29:22.133Z,217.35
2023-01-01T20:31:53.076Z,214.50
2023-01-01T20:34:23.018Z,214.48
2023-01-01T20:37:09.160Z,201.13
2023-01-01T20:39:41.857Z,175.65
2023-01-01T20:42:11.963Z,170.63
2023-01-01T20:44:43.303Z,142.93
2023-01-01T20:47:13.232Z,104.72
2023-01-01T20:49:42.897Z,73.15
2023-01-01T20:52:12.273Z,69.80
2023-01-01T20:54:43.119Z,67.10
2023-01-01T20:57:12.533Z,54.17
2023-01-01T20:59:42.108Z,45.83
2023-01-01T21:02:12.803Z,42.03
2023-01-01T21:04:42.319Z,36.78
2023-01-01T21:07:13.386Z,36.38
2023-01-01T21:09:44.668Z,32.65
2023-01-01T21:12:13.820Z,31.80
2023-01-01T21:14:43.412Z,29.70
2023-01-01T21:17:22.251Z,26.50
2023-01-01T21:19:52.807Z,26.50
2023-01-01T21:22:22.458Z,25.58
2023-01-01T21:24:55.432Z,22.95
2023-01-01T21:27:34.570Z,22.55
2023-01-01T21:30:04.391Z,22.92
2023-01-01T21:32:40.213Z,21.27
2023-01-01T21:35:20.205Z,21.25
2023-01-01T21:37:51.682Z,20.40
2023-01-01T21:40:41.519Z,19.42
2023-01-01T21:43:38.659Z,19.40
2023-01-01T21:46:32.936Z,18.27
2023-01-01T21:49:13.698Z,18.38
2023-01-01T21:51:48.409Z,16.08
2023-01-01T21:54:23.370Z,16.88
2023-01-01T21:56:57.769Z,16.52
2023-01-01T21:59:36.198Z,15.50
2023-01-01T22:02:38.158Z,16.15
2023-01-01T22:05:31.482Z,15.68
2023-01-01T22:08:18.886Z,14.65
2023-01-01T22:10:48.994Z,13.95
2023-01-01T22:13:21.073Z,14.13
2023-01-01T22:15:51.566Z,13.38
2023-01-01T22:18:27.032Z,14.25
2023-01-01T22:20:57.964Z,14.10
2023-01-01T22:23:36.339Z,13.60
2023-01-01T22:26:25.586Z,13.38
2023-01-01T22:29:00.958Z,12.73
2023-01-01T22:31:36.284Z,12.18
2023-01-01T22:34:14.965Z,12.65
2023-01-01T22:36:44.485Z,12.90
2023-01-01T22:39:18.238Z,12.98
2023-01-01T22:41:50.427Z,12.45
2023-01-01T22:44:22.054Z,12.43
2023-01-01T22:46:52.086Z,11.32
2023-01-01T22:49:23.590Z,10.95
2023-01-01T22:51:56.286Z,11.65
2023-01-01T22:54:26.120Z,12.00
2023-01-01T22:56:55.986Z,11.30
2023-01-01T22:59:27.473Z,11.55
2023-01-01T23:01:57.853Z,11.45
2023-01-01T23:04:27.791Z,12.40
2023-01-01T23:06:57.962Z,11.93
2023-01-01T23:09:28.200Z,12.60
2023-01-01T23:11:58.312Z,11.63
2023-01-01T23:14:46.403Z,10.57
2023-01-01T23:17:16.179Z,10.93
2023-01-01T23:19:46.078Z,11.25
2023-01-01T23:22:17.924Z,11.18
2023-01-01T23:24:48.475Z,11.45
2023-01-01T23:27:18.482Z,11.10
2023-01-01T23:29:51.588Z,12.25
2023-01-01T23:32:22.970Z,11.20
2023-01-01T23:34:52.917Z,11.18
2023-01-01T23:37:23.043Z,11.02
2023-01-01T23:39:53.021Z,11.15
2023-01-01T23:42:22.790Z,11.02
2023-01-01T23:44:54.701Z,11.15
2023-01-01T23:47:24.722Z,10.30
2023-01-01T23:49:54.768Z,9.52
2023-01-01T23:52:24.720Z,9.77
2023-01-01T23:54:54.549Z,10.73
2023-01-01T23:57:24.411Z,10.40
2023-01-01T23:59:55.661Z,10.00
